sensor_id;sensor_type;location;lat;lon;timestamp;P1;durP1;ratioP1;P2;durP2;ratioP2
40907;SDS011;51055;59.436;24.778;2022-09-28T00:03:44;5.82;;;2.40;;
40907;SDS011;51055;59.436;24.778;2022-09-28T00:06:13;4.40;;;2.15;;
40907;SDS011;51055;59.436;24.778;2022-09-28T00:08:43;4.43;;;2.22;;
40907;SDS011;51055;59.436;24.778;2022-09-28T00:11:11;5.25;;;2.38;;
40907;SDS011;51055;59.436;24.778;2022-09-28T00:13:41;6.22;;;2.38;;
40907;SDS011;51055;59.436;24.778;2022-09-28T00:16:12;5.68;;;2.45;;
40907;SDS011;51055;59.436;24.778;2022-09-28T00:18:42;3.67;;;1.95;;
40907;SDS011;51055;59.436;24.778;2022-09-28T00:21:16;5.83;;;2.30;;
40907;SDS011;51055;59.436;24.778;2022-09-28T00:23:46;5.50;;;2.58;;
40907;SDS011;51055;59.436;24.778;2022-09-28T00:26:36;4.35;;;2.38;;
40907;SDS011;51055;59.436;24.778;2022-09-28T00:29:04;5.57;;;2.28;;
40907;SDS011;51055;59.436;24.778;2022-09-28T00:31:33;4.30;;;2.20;;
40907;SDS011;51055;59.436;24.778;2022-09-28T00:34:01;4.70;;;2.53;;
40907;SDS011;51055;59.436;24.778;2022-09-28T00:36:31;8.80;;;2.58;;
40907;SDS011;51055;59.436;24.778;2022-09-28T00:39:03;4.20;;;1.90;;
40907;SDS011;51055;59.436;24.778;2022-09-28T00:41:33;4.70;;;2.65;;
40907;SDS011;51055;59.436;24.778;2022-09-28T00:46:59;5.10;;;2.63;;
40907;SDS011;51055;59.436;24.778;2022-09-28T00:49:51;5.70;;;2.67;;
40907;SDS011;51055;59.436;24.778;2022-09-28T00:52:37;4.75;;;2.03;;
40907;SDS011;51055;59.436;24.778;2022-09-28T00:55:10;4.75;;;2.38;;
40907;SDS011;51055;59.436;24.778;2022-09-28T00:57:43;3.95;;;2.38;;
40907;SDS011;51055;59.436;24.778;2022-09-28T01:00:15;5.25;;;2.40;;
40907;SDS011;51055;59.436;24.778;2022-09-28T01:02:43;4.85;;;2.40;;
40907;SDS011;51055;59.436;24.778;2022-09-28T01:05:12;4.78;;;2.55;;
40907;SDS011;51055;59.436;24.778;2022-09-28T01:10:10;5.28;;;2.50;;
40907;SDS011;51055;59.436;24.778;2022-09-28T01:12:37;7.03;;;2.70;;
40907;SDS011;51055;59.436;24.778;2022-09-28T01:15:05;6.43;;;2.88;;
40907;SDS011;51055;59.436;24.778;2022-09-28T01:28:44;4.63;;;2.60;;
40907;SDS011;51055;59.436;24.778;2022-09-28T01:31:14;5.65;;;2.40;;
40907;SDS011;51055;59.436;24.778;2022-09-28T01:33:49;4.72;;;2.65;;
40907;SDS011;51055;59.436;24.778;2022-09-28T01:36:32;4.75;;;2.67;;
40907;SDS011;51055;59.436;24.778;2022-09-28T01:39:11;5.15;;;2.45;;
40907;SDS011;51055;59.436;24.778;2022-09-28T01:44:13;4.38;;;2.08;;
40907;SDS011;51055;59.436;24.778;2022-09-28T01:46:45;5.35;;;2.55;;
40907;SDS011;51055;59.436;24.778;2022-09-28T01:49:34;5.05;;;2.10;;
40907;SDS011;51055;59.436;24.778;2022-09-28T01:52:12;5.53;;;2.50;;
40907;SDS011;51055;59.436;24.778;2022-09-28T01:55:08;4.13;;;2.50;;
40907;SDS011;51055;59.436;24.778;2022-09-28T01:57:44;4.70;;;2.50;;
40907;SDS011;51055;59.436;24.778;2022-09-28T02:00:14;4.75;;;2.10;;
40907;SDS011;51055;59.436;24.778;2022-09-28T02:05:49;3.92;;;2.20;;
40907;SDS011;51055;59.436;24.778;2022-09-28T02:08:25;4.72;;;1.92;;
40907;SDS011;51055;59.436;24.778;2022-09-28T02:11:28;5.25;;;2.65;;
40907;SDS011;51055;59.436;24.778;2022-09-28T02:13:49;4.57;;;2.38;;
40907;SDS011;51055;59.436;24.778;2022-09-28T02:16:34;3.95;;;2.13;;
40907;SDS011;51055;59.436;24.778;2022-09-28T02:19:10;5.97;;;2.45;;
40907;SDS011;51055;59.436;24.778;2022-09-28T02:21:42;6.07;;;2.72;;
40907;SDS011;51055;59.436;24.778;2022-09-28T02:30:09;6.40;;;2.28;;
40907;SDS011;51055;59.436;24.778;2022-09-28T02:32:38;3.63;;;1.83;;
40907;SDS011;51055;59.436;24.778;2022-09-28T02:35:09;4.63;;;2.58;;
40907;SDS011;51055;59.436;24.778;2022-09-28T02:37:38;4.78;;;2.53;;
40907;SDS011;51055;59.436;24.778;2022-09-28T02:42:51;4.45;;;2.40;;
40907;SDS011;51055;59.436;24.778;2022-09-28T02:48:15;4.88;;;2.50;;
40907;SDS011;51055;59.436;24.778;2022-09-28T03:02:24;5.63;;;2.38;;
40907;SDS011;51055;59.436;24.778;2022-09-28T03:05:05;4.63;;;2.45;;
40907;SDS011;51055;59.436;24.778;2022-09-28T03:07:49;4.80;;;2.55;;
40907;SDS011;51055;59.436;24.778;2022-09-28T03:10:37;4.38;;;2.47;;
40907;SDS011;51055;59.436;24.778;2022-09-28T03:13:10;4.43;;;2.40;;
40907;SDS011;51055;59.436;24.778;2022-09-28T03:15:39;5.32;;;2.42;;
40907;SDS011;51055;59.436;24.778;2022-09-28T03:18:15;5.40;;;2.60;;
40907;SDS011;51055;59.436;24.778;2022-09-28T03:20:42;5.25;;;2.60;;
40907;SDS011;51055;59.436;24.778;2022-09-28T03:23:10;4.70;;;2.00;;
40907;SDS011;51055;59.436;24.778;2022-09-28T03:25:51;4.95;;;2.60;;
40907;SDS011;51055;59.436;24.778;2022-09-28T03:28:19;6.60;;;2.85;;
40907;SDS011;51055;59.436;24.778;2022-09-28T03:30:48;4.25;;;2.50;;
40907;SDS011;51055;59.436;24.778;2022-09-28T03:33:16;9.65;;;2.70;;
40907;SDS011;51055;59.436;24.778;2022-09-28T03:35:48;3.67;;;2.03;;
40907;SDS011;51055;59.436;24.778;2022-09-28T03:38:17;5.43;;;3.28;;
40907;SDS011;51055;59.436;24.778;2022-09-28T03:40:51;5.20;;;2.93;;
40907;SDS011;51055;59.436;24.778;2022-09-28T03:43:21;5.53;;;2.53;;
40907;SDS011;51055;59.436;24.778;2022-09-28T03:45:52;5.40;;;2.75;;
40907;SDS011;51055;59.436;24.778;2022-09-28T03:48:25;4.82;;;2.80;;
40907;SDS011;51055;59.436;24.778;2022-09-28T03:51:00;5.05;;;3.25;;
40907;SDS011;51055;59.436;24.778;2022-09-28T03:53:29;6.15;;;2.70;;
40907;SDS011;51055;59.436;24.778;2022-09-28T03:56:07;6.33;;;2.03;;
40907;SDS011;51055;59.436;24.778;2022-09-28T03:58:38;6.10;;;2.60;;
40907;SDS011;51055;59.436;24.778;2022-09-28T04:01:07;5.00;;;3.00;;
40907;SDS011;51055;59.436;24.778;2022-09-28T04:03:43;6.13;;;3.65;;
40907;SDS011;51055;59.436;24.778;2022-09-28T04:06:12;7.45;;;3.00;;
40907;SDS011;51055;59.436;24.778;2022-09-28T04:08:40;5.25;;;2.80;;
40907;SDS011;51055;59.436;24.778;2022-09-28T04:11:09;8.13;;;5.22;;
40907;SDS011;51055;59.436;24.778;2022-09-28T04:13:37;8.77;;;4.55;;
40907;SDS011;51055;59.436;24.778;2022-09-28T04:16:05;6.82;;;3.70;;
40907;SDS011;51055;59.436;24.778;2022-09-28T04:18:33;5.97;;;3.17;;
40907;SDS011;51055;59.436;24.778;2022-09-28T04:21:01;4.70;;;2.38;;
40907;SDS011;51055;59.436;24.778;2022-09-28T04:23:34;6.28;;;3.13;;
40907;SDS011;51055;59.436;24.778;2022-09-28T04:26:03;6.35;;;3.67;;
40907;SDS011;51055;59.436;24.778;2022-09-28T04:28:32;5.40;;;3.10;;
40907;SDS011;51055;59.436;24.778;2022-09-28T04:31:19;6.35;;;2.90;;
40907;SDS011;51055;59.436;24.778;2022-09-28T04:33:49;5.43;;;3.00;;
40907;SDS011;51055;59.436;24.778;2022-09-28T04:36:16;6.68;;;3.33;;
40907;SDS011;51055;59.436;24.778;2022-09-28T04:38:46;7.15;;;3.28;;
40907;SDS011;51055;59.436;24.778;2022-09-28T04:41:20;6.32;;;2.90;;
40907;SDS011;51055;59.436;24.778;2022-09-28T04:43:48;7.40;;;3.47;;
40907;SDS011;51055;59.436;24.778;2022-09-28T04:46:16;4.72;;;2.60;;
40907;SDS011;51055;59.436;24.778;2022-09-28T04:48:45;6.70;;;2.97;;
40907;SDS011;51055;59.436;24.778;2022-09-28T04:51:13;6.00;;;3.92;;
40907;SDS011;51055;59.436;24.778;2022-09-28T04:53:41;7.43;;;3.20;;
40907;SDS011;51055;59.436;24.778;2022-09-28T04:56:12;5.90;;;3.20;;
40907;SDS011;51055;59.436;24.778;2022-09-28T04:58:41;9.35;;;3.00;;
40907;SDS011;51055;59.436;24.778;2022-09-28T05:01:18;7.03;;;3.08;;
40907;SDS011;51055;59.436;24.778;2022-09-28T05:03:49;9.57;;;4.28;;
40907;SDS011;51055;59.436;24.778;2022-09-28T05:06:17;7.85;;;3.28;;
40907;SDS011;51055;59.436;24.778;2022-09-28T05:08:45;6.53;;;3.08;;
40907;SDS011;51055;59.436;24.778;2022-09-28T05:11:13;5.63;;;2.60;;
40907;SDS011;51055;59.436;24.778;2022-09-28T05:13:42;6.18;;;3.28;;
40907;SDS011;51055;59.436;24.778;2022-09-28T05:16:12;8.18;;;3.60;;
40907;SDS011;51055;59.436;24.778;2022-09-28T05:18:41;9.18;;;3.80;;
40907;SDS011;51055;59.436;24.778;2022-09-28T05:21:09;7.70;;;3.57;;
40907;SDS011;51055;59.436;24.778;2022-09-28T05:23:39;7.45;;;3.60;;
40907;SDS011;51055;59.436;24.778;2022-09-28T05:26:11;10.00;;;3.50;;
40907;SDS011;51055;59.436;24.778;2022-09-28T05:28:39;7.85;;;3.67;;
40907;SDS011;51055;59.436;24.778;2022-09-28T05:31:07;6.38;;;4.00;;
40907;SDS011;51055;59.436;24.778;2022-09-28T05:33:35;8.02;;;3.90;;
40907;SDS011;51055;59.436;24.778;2022-09-28T05:36:03;6.43;;;3.42;;
40907;SDS011;51055;59.436;24.778;2022-09-28T05:38:31;6.35;;;3.05;;
40907;SDS011;51055;59.436;24.778;2022-09-28T05:40:59;8.70;;;4.18;;
40907;SDS011;51055;59.436;24.778;2022-09-28T05:43:32;9.40;;;3.80;;
40907;SDS011;51055;59.436;24.778;2022-09-28T05:46:00;11.57;;;4.00;;
40907;SDS011;51055;59.436;24.778;2022-09-28T05:48:28;8.40;;;3.85;;
40907;SDS011;51055;59.436;24.778;2022-09-28T05:50:56;7.38;;;3.90;;
40907;SDS011;51055;59.436;24.778;2022-09-28T05:53:24;7.10;;;3.50;;
40907;SDS011;51055;59.436;24.778;2022-09-28T05:55:55;9.25;;;3.88;;
40907;SDS011;51055;59.436;24.778;2022-09-28T05:58:23;7.15;;;3.50;;
40907;SDS011;51055;59.436;24.778;2022-09-28T06:00:54;6.97;;;3.78;;
40907;SDS011;51055;59.436;24.778;2022-09-28T06:03:23;6.93;;;3.72;;
40907;SDS011;51055;59.436;24.778;2022-09-28T06:05:51;9.05;;;3.22;;
40907;SDS011;51055;59.436;24.778;2022-09-28T06:08:19;8.95;;;3.50;;
40907;SDS011;51055;59.436;24.778;2022-09-28T06:10:46;8.80;;;3.75;;
40907;SDS011;51055;59.436;24.778;2022-09-28T06:13:14;8.15;;;3.60;;
40907;SDS011;51055;59.436;24.778;2022-09-28T06:15:41;6.15;;;3.80;;
40907;SDS011;51055;59.436;24.778;2022-09-28T06:18:11;13.98;;;3.75;;
40907;SDS011;51055;59.436;24.778;2022-09-28T06:20:42;7.40;;;3.83;;
40907;SDS011;51055;59.436;24.778;2022-09-28T06:23:11;7.63;;;3.42;;
40907;SDS011;51055;59.436;24.778;2022-09-28T06:28:11;8.25;;;3.88;;
40907;SDS011;51055;59.436;24.778;2022-09-28T06:30:40;8.95;;;3.67;;
40907;SDS011;51055;59.436;24.778;2022-09-28T06:35:38;7.55;;;3.75;;
40907;SDS011;51055;59.436;24.778;2022-09-28T06:38:06;4.97;;;2.83;;
40907;SDS011;51055;59.436;24.778;2022-09-28T06:40:34;8.00;;;3.80;;
40907;SDS011;51055;59.436;24.778;2022-09-28T06:43:06;9.57;;;3.60;;
40907;SDS011;51055;59.436;24.778;2022-09-28T06:45:37;8.80;;;3.45;;
40907;SDS011;51055;59.436;24.778;2022-09-28T06:48:05;7.87;;;3.73;;
40907;SDS011;51055;59.436;24.778;2022-09-28T06:50:34;5.53;;;2.80;;
40907;SDS011;51055;59.436;24.778;2022-09-28T06:53:06;6.32;;;3.63;;
40907;SDS011;51055;59.436;24.778;2022-09-28T06:55:39;8.15;;;3.88;;
40907;SDS011;51055;59.436;24.778;2022-09-28T06:58:09;6.78;;;3.80;;
40907;SDS011;51055;59.436;24.778;2022-09-28T07:00:38;8.23;;;3.78;;
40907;SDS011;51055;59.436;24.778;2022-09-28T07:03:11;7.10;;;3.45;;
40907;SDS011;51055;59.436;24.778;2022-09-28T07:05:42;5.68;;;3.13;;
40907;SDS011;51055;59.436;24.778;2022-09-28T07:08:11;9.73;;;3.40;;
40907;SDS011;51055;59.436;24.778;2022-09-28T07:10:44;5.40;;;3.30;;
40907;SDS011;51055;59.436;24.778;2022-09-28T07:13:13;7.30;;;3.15;;
40907;SDS011;51055;59.436;24.778;2022-09-28T07:16:02;7.57;;;3.40;;
40907;SDS011;51055;59.436;24.778;2022-09-28T07:18:30;6.30;;;3.03;;
40907;SDS011;51055;59.436;24.778;2022-09-28T07:20:58;8.00;;;2.80;;
40907;SDS011;51055;59.436;24.778;2022-09-28T07:23:25;7.10;;;3.10;;
40907;SDS011;51055;59.436;24.778;2022-09-28T07:25:56;5.50;;;2.72;;
40907;SDS011;51055;59.436;24.778;2022-09-28T07:30:52;9.27;;;3.13;;
40907;SDS011;51055;59.436;24.778;2022-09-28T07:33:23;5.22;;;3.13;;
40907;SDS011;51055;59.436;24.778;2022-09-28T07:35:54;5.90;;;2.90;;
40907;SDS011;51055;59.436;24.778;2022-09-28T07:38:22;6.97;;;3.08;;
40907;SDS011;51055;59.436;24.778;2022-09-28T07:40:50;8.85;;;3.13;;
40907;SDS011;51055;59.436;24.778;2022-09-28T07:43:37;7.28;;;3.00;;
40907;SDS011;51055;59.436;24.778;2022-09-28T07:46:08;9.30;;;2.97;;
40907;SDS011;51055;59.436;24.778;2022-09-28T07:48:39;10.45;;;3.03;;
40907;SDS011;51055;59.436;24.778;2022-09-28T07:51:09;6.30;;;2.67;;
40907;SDS011;51055;59.436;24.778;2022-09-28T07:53:37;6.68;;;3.28;;
40907;SDS011;51055;59.436;24.778;2022-09-28T07:56:05;7.68;;;3.00;;
40907;SDS011;51055;59.436;24.778;2022-09-28T07:58:37;6.75;;;2.60;;
40907;SDS011;51055;59.436;24.778;2022-09-28T08:01:07;5.95;;;2.53;;
40907;SDS011;51055;59.436;24.778;2022-09-28T08:03:37;7.13;;;2.60;;
40907;SDS011;51055;59.436;24.778;2022-09-28T08:06:06;7.68;;;2.47;;
40907;SDS011;51055;59.436;24.778;2022-09-28T08:08:40;5.10;;;3.03;;
40907;SDS011;51055;59.436;24.778;2022-09-28T08:11:11;5.18;;;2.30;;
40907;SDS011;51055;59.436;24.778;2022-09-28T08:13:43;6.80;;;2.90;;
40907;SDS011;51055;59.436;24.778;2022-09-28T08:18:40;4.93;;;2.53;;
40907;SDS011;51055;59.436;24.778;2022-09-28T08:21:08;6.40;;;2.70;;
40907;SDS011;51055;59.436;24.778;2022-09-28T08:23:55;4.65;;;2.60;;
40907;SDS011;51055;59.436;24.778;2022-09-28T08:26:23;6.35;;;3.40;;
40907;SDS011;51055;59.436;24.778;2022-09-28T08:28:50;6.85;;;3.30;;
40907;SDS011;51055;59.436;24.778;2022-09-28T08:31:18;8.00;;;3.15;;
40907;SDS011;51055;59.436;24.778;2022-09-28T08:33:46;7.82;;;2.95;;
40907;SDS011;51055;59.436;24.778;2022-09-28T08:36:19;6.90;;;2.50;;
40907;SDS011;51055;59.436;24.778;2022-09-28T08:38:47;7.30;;;2.90;;
40907;SDS011;51055;59.436;24.778;2022-09-28T08:41:16;6.85;;;2.55;;
40907;SDS011;51055;59.436;24.778;2022-09-28T08:46:44;6.78;;;2.97;;
40907;SDS011;51055;59.436;24.778;2022-09-28T08:49:22;4.90;;;2.08;;
40907;SDS011;51055;59.436;24.778;2022-09-28T08:57:29;7.22;;;3.10;;
40907;SDS011;51055;59.436;24.778;2022-09-28T09:00:05;6.13;;;3.00;;
40907;SDS011;51055;59.436;24.778;2022-09-28T09:02:37;8.57;;;5.82;;
40907;SDS011;51055;59.436;24.778;2022-09-28T09:05:08;8.93;;;3.15;;
40907;SDS011;51055;59.436;24.778;2022-09-28T09:13:29;6.03;;;2.50;;
40907;SDS011;51055;59.436;24.778;2022-09-28T09:16:28;4.15;;;2.42;;
40907;SDS011;51055;59.436;24.778;2022-09-28T09:21:39;5.10;;;3.03;;
40907;SDS011;51055;59.436;24.778;2022-09-28T09:24:27;5.20;;;2.70;;
40907;SDS011;51055;59.436;24.778;2022-09-28T09:46:54;8.48;;;2.55;;
40907;SDS011;51055;59.436;24.778;2022-09-28T09:49:38;4.50;;;2.45;;
40907;SDS011;51055;59.436;24.778;2022-09-28T09:57:12;4.68;;;2.25;;
40907;SDS011;51055;59.436;24.778;2022-09-28T09:59:48;5.35;;;2.30;;
40907;SDS011;51055;59.436;24.778;2022-09-28T10:02:26;6.18;;;2.30;;
40907;SDS011;51055;59.436;24.778;2022-09-28T10:04:58;3.88;;;2.22;;
40907;SDS011;51055;59.436;24.778;2022-09-28T10:10:25;4.97;;;2.42;;
40907;SDS011;51055;59.436;24.778;2022-09-28T10:12:55;4.28;;;2.40;;
40907;SDS011;51055;59.436;24.778;2022-09-28T10:15:27;5.03;;;2.60;;
40907;SDS011;51055;59.436;24.778;2022-09-28T10:17:57;4.38;;;2.58;;
40907;SDS011;51055;59.436;24.778;2022-09-28T10:20:30;5.90;;;2.78;;
40907;SDS011;51055;59.436;24.778;2022-09-28T10:23:03;4.22;;;2.30;;
40907;SDS011;51055;59.436;24.778;2022-09-28T10:25:36;7.95;;;2.35;;
40907;SDS011;51055;59.436;24.778;2022-09-28T10:30:34;3.72;;;2.08;;
40907;SDS011;51055;59.436;24.778;2022-09-28T10:36:02;4.80;;;2.75;;
40907;SDS011;51055;59.436;24.778;2022-09-28T10:38:33;6.35;;;3.50;;
40907;SDS011;51055;59.436;24.778;2022-09-28T10:41:07;6.07;;;2.50;;
40907;SDS011;51055;59.436;24.778;2022-09-28T10:46:32;5.35;;;2.88;;
40907;SDS011;51055;59.436;24.778;2022-09-28T10:49:03;4.88;;;2.72;;
40907;SDS011;51055;59.436;24.778;2022-09-28T10:51:39;8.60;;;2.50;;
40907;SDS011;51055;59.436;24.778;2022-09-28T10:54:15;4.95;;;2.85;;
40907;SDS011;51055;59.436;24.778;2022-09-28T10:56:48;4.88;;;2.33;;
40907;SDS011;51055;59.436;24.778;2022-09-28T11:01:53;6.85;;;3.55;;
40907;SDS011;51055;59.436;24.778;2022-09-28T11:04:27;6.80;;;2.70;;
40907;SDS011;51055;59.436;24.778;2022-09-28T11:06:56;4.18;;;2.03;;
40907;SDS011;51055;59.436;24.778;2022-09-28T11:09:27;7.10;;;2.55;;
40907;SDS011;51055;59.436;24.778;2022-09-28T11:11:57;3.85;;;2.10;;
40907;SDS011;51055;59.436;24.778;2022-09-28T11:14:33;7.40;;;2.20;;
40907;SDS011;51055;59.436;24.778;2022-09-28T11:20:24;5.55;;;2.60;;
40907;SDS011;51055;59.436;24.778;2022-09-28T11:23:14;4.38;;;2.40;;
40907;SDS011;51055;59.436;24.778;2022-09-28T11:26:04;7.35;;;2.80;;
40907;SDS011;51055;59.436;24.778;2022-09-28T11:28:36;7.22;;;3.00;;
40907;SDS011;51055;59.436;24.778;2022-09-28T11:31:05;6.47;;;3.20;;
40907;SDS011;51055;59.436;24.778;2022-09-28T11:38:40;8.32;;;3.28;;
40907;SDS011;51055;59.436;24.778;2022-09-28T11:41:23;5.93;;;3.22;;
40907;SDS011;51055;59.436;24.778;2022-09-28T11:44:04;6.15;;;3.10;;
40907;SDS011;51055;59.436;24.778;2022-09-28T11:52:02;7.65;;;3.45;;
40907;SDS011;51055;59.436;24.778;2022-09-28T11:54:51;10.38;;;6.43;;
40907;SDS011;51055;59.436;24.778;2022-09-28T11:57:24;6.60;;;3.63;;
40907;SDS011;51055;59.436;24.778;2022-09-28T11:59:57;9.77;;;6.57;;
40907;SDS011;51055;59.436;24.778;2022-09-28T12:02:32;7.78;;;3.33;;
40907;SDS011;51055;59.436;24.778;2022-09-28T12:08:06;5.30;;;3.35;;
40907;SDS011;51055;59.436;24.778;2022-09-28T12:11:04;8.02;;;3.17;;
40907;SDS011;51055;59.436;24.778;2022-09-28T12:13:36;6.80;;;3.00;;
40907;SDS011;51055;59.436;24.778;2022-09-28T12:19:02;7.53;;;3.22;;
40907;SDS011;51055;59.436;24.778;2022-09-28T12:21:45;6.35;;;2.90;;
40907;SDS011;51055;59.436;24.778;2022-09-28T12:24:18;4.95;;;2.80;;
40907;SDS011;51055;59.436;24.778;2022-09-28T12:29:42;4.82;;;2.40;;
40907;SDS011;51055;59.436;24.778;2022-09-28T12:32:26;4.82;;;2.40;;
40907;SDS011;51055;59.436;24.778;2022-09-28T12:38:46;5.22;;;2.65;;
40907;SDS011;51055;59.436;24.778;2022-09-28T12:42:00;8.07;;;2.67;;
40907;SDS011;51055;59.436;24.778;2022-09-28T12:56:10;5.40;;;2.28;;
40907;SDS011;51055;59.436;24.778;2022-09-28T13:07:07;5.75;;;2.40;;
40907;SDS011;51055;59.436;24.778;2022-09-28T13:18:52;5.63;;;2.28;;
40907;SDS011;51055;59.436;24.778;2022-09-28T13:21:27;4.47;;;2.28;;
40907;SDS011;51055;59.436;24.778;2022-09-28T13:24:10;5.57;;;1.92;;
40907;SDS011;51055;59.436;24.778;2022-09-28T13:27:00;7.03;;;2.17;;
40907;SDS011;51055;59.436;24.778;2022-09-28T13:29:36;6.93;;;2.30;;
40907;SDS011;51055;59.436;24.778;2022-09-28T13:32:11;6.05;;;2.10;;
40907;SDS011;51055;59.436;24.778;2022-09-28T13:34:39;4.65;;;2.00;;
40907;SDS011;51055;59.436;24.778;2022-09-28T13:42:19;4.93;;;2.45;;
40907;SDS011;51055;59.436;24.778;2022-09-28T13:47:42;4.63;;;2.40;;
40907;SDS011;51055;59.436;24.778;2022-09-28T13:59:25;6.32;;;2.50;;
40907;SDS011;51055;59.436;24.778;2022-09-28T14:02:12;4.97;;;2.70;;
40907;SDS011;51055;59.436;24.778;2022-09-28T14:04:59;6.05;;;3.00;;
40907;SDS011;51055;59.436;24.778;2022-09-28T14:12:50;4.60;;;2.22;;
40907;SDS011;51055;59.436;24.778;2022-09-28T14:20:55;7.53;;;2.33;;
40907;SDS011;51055;59.436;24.778;2022-09-28T14:31:56;5.25;;;2.00;;
40907;SDS011;51055;59.436;24.778;2022-09-28T14:37:01;4.57;;;2.00;;
40907;SDS011;51055;59.436;24.778;2022-09-28T14:39:49;3.75;;;1.90;;
40907;SDS011;51055;59.436;24.778;2022-09-28T14:42:36;4.10;;;1.92;;
40907;SDS011;51055;59.436;24.778;2022-09-28T14:52:49;5.47;;;2.10;;
40907;SDS011;51055;59.436;24.778;2022-09-28T14:55:23;3.78;;;2.10;;
40907;SDS011;51055;59.436;24.778;2022-09-28T14:57:55;7.00;;;1.73;;
40907;SDS011;51055;59.436;24.778;2022-09-28T15:00:25;3.95;;;2.00;;
40907;SDS011;51055;59.436;24.778;2022-09-28T15:03:01;7.18;;;2.53;;
40907;SDS011;51055;59.436;24.778;2022-09-28T15:05:40;7.20;;;1.60;;
40907;SDS011;51055;59.436;24.778;2022-09-28T15:08:10;3.67;;;1.80;;
40907;SDS011;51055;59.436;24.778;2022-09-28T15:10:39;5.00;;;1.75;;
40907;SDS011;51055;59.436;24.778;2022-09-28T15:16:02;3.63;;;1.63;;
40907;SDS011;51055;59.436;24.778;2022-09-28T15:21:00;5.00;;;2.08;;
40907;SDS011;51055;59.436;24.778;2022-09-28T15:25:56;4.50;;;1.77;;
40907;SDS011;51055;59.436;24.778;2022-09-28T15:28:24;3.40;;;1.63;;
40907;SDS011;51055;59.436;24.778;2022-09-28T15:30:57;3.42;;;1.60;;
40907;SDS011;51055;59.436;24.778;2022-09-28T15:36:20;3.38;;;1.60;;
40907;SDS011;51055;59.436;24.778;2022-09-28T15:38:56;3.55;;;1.52;;
40907;SDS011;51055;59.436;24.778;2022-09-28T15:41:28;4.05;;;1.60;;
40907;SDS011;51055;59.436;24.778;2022-09-28T15:44:03;3.50;;;1.70;;
40907;SDS011;51055;59.436;24.778;2022-09-28T15:49:27;2.47;;;1.30;;
40907;SDS011;51055;59.436;24.778;2022-09-28T15:52:05;5.50;;;1.55;;
40907;SDS011;51055;59.436;24.778;2022-09-28T15:54:48;5.95;;;1.90;;
40907;SDS011;51055;59.436;24.778;2022-09-28T15:57:35;3.60;;;1.40;;
40907;SDS011;51055;59.436;24.778;2022-09-28T16:05:50;4.97;;;1.80;;
40907;SDS011;51055;59.436;24.778;2022-09-28T16:11:10;3.30;;;1.60;;
40907;SDS011;51055;59.436;24.778;2022-09-28T16:16:29;2.97;;;1.48;;
40907;SDS011;51055;59.436;24.778;2022-09-28T16:19:01;3.72;;;1.60;;
40907;SDS011;51055;59.436;24.778;2022-09-28T16:21:37;2.70;;;1.15;;
40907;SDS011;51055;59.436;24.778;2022-09-28T16:24:17;4.25;;;1.77;;
40907;SDS011;51055;59.436;24.778;2022-09-28T16:26:54;3.53;;;1.67;;
40907;SDS011;51055;59.436;24.778;2022-09-28T16:29:34;3.72;;;1.50;;
40907;SDS011;51055;59.436;24.778;2022-09-28T16:37:40;3.75;;;1.75;;
40907;SDS011;51055;59.436;24.778;2022-09-28T16:40:09;3.70;;;1.70;;
40907;SDS011;51055;59.436;24.778;2022-09-28T16:42:37;7.45;;;2.30;;
40907;SDS011;51055;59.436;24.778;2022-09-28T16:45:16;7.07;;;2.20;;
40907;SDS011;51055;59.436;24.778;2022-09-28T16:47:46;4.57;;;2.30;;
40907;SDS011;51055;59.436;24.778;2022-09-28T16:50:19;5.45;;;2.67;;
40907;SDS011;51055;59.436;24.778;2022-09-28T16:56:03;8.00;;;4.10;;
40907;SDS011;51055;59.436;24.778;2022-09-28T16:58:31;7.40;;;3.77;;
40907;SDS011;51055;59.436;24.778;2022-09-28T17:00:59;6.40;;;3.45;;
40907;SDS011;51055;59.436;24.778;2022-09-28T17:03:27;8.20;;;3.70;;
40907;SDS011;51055;59.436;24.778;2022-09-28T17:05:55;8.23;;;4.47;;
40907;SDS011;51055;59.436;24.778;2022-09-28T17:08:23;9.20;;;4.75;;
40907;SDS011;51055;59.436;24.778;2022-09-28T17:10:55;6.22;;;3.30;;
40907;SDS011;51055;59.436;24.778;2022-09-28T17:13:45;6.65;;;3.83;;
40907;SDS011;51055;59.436;24.778;2022-09-28T17:16:16;6.80;;;4.22;;
40907;SDS011;51055;59.436;24.778;2022-09-28T17:19:22;7.30;;;4.20;;
40907;SDS011;51055;59.436;24.778;2022-09-28T17:21:51;6.75;;;3.60;;
40907;SDS011;51055;59.436;24.778;2022-09-28T17:24:19;6.43;;;3.90;;
40907;SDS011;51055;59.436;24.778;2022-09-28T17:26:48;7.47;;;4.03;;
40907;SDS011;51055;59.436;24.778;2022-09-28T17:29:17;6.03;;;3.50;;
40907;SDS011;51055;59.436;24.778;2022-09-28T17:31:45;9.82;;;5.47;;
40907;SDS011;51055;59.436;24.778;2022-09-28T17:34:14;8.80;;;4.90;;
40907;SDS011;51055;59.436;24.778;2022-09-28T17:36:42;9.65;;;5.40;;
40907;SDS011;51055;59.436;24.778;2022-09-28T17:39:12;7.88;;;4.43;;
40907;SDS011;51055;59.436;24.778;2022-09-28T17:41:41;7.50;;;4.03;;
40907;SDS011;51055;59.436;24.778;2022-09-28T17:44:09;8.18;;;4.20;;
40907;SDS011;51055;59.436;24.778;2022-09-28T17:46:38;7.00;;;3.90;;
40907;SDS011;51055;59.436;24.778;2022-09-28T17:49:12;6.53;;;3.75;;
40907;SDS011;51055;59.436;24.778;2022-09-28T17:51:40;6.90;;;3.90;;
40907;SDS011;51055;59.436;24.778;2022-09-28T17:54:08;8.70;;;5.72;;
40907;SDS011;51055;59.436;24.778;2022-09-28T17:56:37;9.07;;;5.78;;
40907;SDS011;51055;59.436;24.778;2022-09-28T17:59:06;9.27;;;6.15;;
40907;SDS011;51055;59.436;24.778;2022-09-28T18:01:37;8.13;;;5.35;;
40907;SDS011;51055;59.436;24.778;2022-09-28T18:06:35;8.23;;;5.80;;
40907;SDS011;51055;59.436;24.778;2022-09-28T18:09:03;8.57;;;4.43;;
40907;SDS011;51055;59.436;24.778;2022-09-28T18:11:31;7.03;;;3.97;;
40907;SDS011;51055;59.436;24.778;2022-09-28T18:14:00;7.50;;;3.90;;
40907;SDS011;51055;59.436;24.778;2022-09-28T18:16:27;6.93;;;3.35;;
40907;SDS011;51055;59.436;24.778;2022-09-28T18:18:56;8.02;;;3.45;;
40907;SDS011;51055;59.436;24.778;2022-09-28T18:21:25;8.02;;;3.30;;
40907;SDS011;51055;59.436;24.778;2022-09-28T18:23:52;5.63;;;2.90;;
40907;SDS011;51055;59.436;24.778;2022-09-28T18:26:20;5.75;;;2.78;;
40907;SDS011;51055;59.436;24.778;2022-09-28T18:28:48;5.18;;;2.50;;
40907;SDS011;51055;59.436;24.778;2022-09-28T18:31:21;6.03;;;3.30;;
40907;SDS011;51055;59.436;24.778;2022-09-28T18:33:49;5.90;;;3.10;;
40907;SDS011;51055;59.436;24.778;2022-09-28T18:36:16;5.80;;;3.38;;
40907;SDS011;51055;59.436;24.778;2022-09-28T18:38:44;4.22;;;2.17;;
40907;SDS011;51055;59.436;24.778;2022-09-28T18:41:13;7.07;;;3.67;;
40907;SDS011;51055;59.436;24.778;2022-09-28T18:43:51;7.63;;;3.00;;
40907;SDS011;51055;59.436;24.778;2022-09-28T18:46:21;6.57;;;2.45;;
40907;SDS011;51055;59.436;24.778;2022-09-28T18:48:53;5.03;;;2.53;;
40907;SDS011;51055;59.436;24.778;2022-09-28T18:51:21;5.60;;;3.00;;
40907;SDS011;51055;59.436;24.778;2022-09-28T18:53:49;8.90;;;3.05;;
40907;SDS011;51055;59.436;24.778;2022-09-28T18:56:17;5.70;;;2.80;;
40907;SDS011;51055;59.436;24.778;2022-09-28T18:58:46;5.32;;;2.65;;
40907;SDS011;51055;59.436;24.778;2022-09-28T19:01:18;8.95;;;3.10;;
40907;SDS011;51055;59.436;24.778;2022-09-28T19:04:03;6.20;;;2.75;;
40907;SDS011;51055;59.436;24.778;2022-09-28T19:06:32;5.18;;;2.75;;
40907;SDS011;51055;59.436;24.778;2022-09-28T19:09:00;6.40;;;2.60;;
40907;SDS011;51055;59.436;24.778;2022-09-28T19:11:28;6.20;;;2.97;;
40907;SDS011;51055;59.436;24.778;2022-09-28T19:13:56;5.65;;;2.88;;
40907;SDS011;51055;59.436;24.778;2022-09-28T19:16:25;6.05;;;3.60;;